PDA5506 UKBB-UKLN
Flight info
| Callsign | PDA5506 |
|---|---|
| Flight time | 1h 7m |
| Altitude | 16000 |
| Route | SLV Q545 TUMBI |
| Aircraft | AN24/M-SDRUYZ/C |
Departure
| Time | 2026-04-22 11:39 |
|---|---|
| Airport | Boryspil International Airport (UKBB) |
Arrival
| Time | 2026-04-22 12:46 |
|---|---|
| Airport | Chernivtsi International Airport (UKLN) |
| Time | Latitude | Longitude | Altitude | Speed | Heading |
|---|---|---|---|---|---|
| 2026-04-22 11:26 | 50.33781 | 30.89354 | 427 ft | 0 kts | 272° |
| 2026-04-22 11:36 | 50.33768 | 30.89389 | 427 ft | 15 kts | 76° |
| 2026-04-22 11:36 | 50.33707 | 30.89471 | 427 ft | 16 kts | 186° |
| 2026-04-22 11:37 | 50.33597 | 30.89493 | 427 ft | 9 kts | 112° |
| 2026-04-22 11:37 | 50.33608 | 30.89688 | 427 ft | 26 kts | 90° |
| 2026-04-22 11:37 | 50.33602 | 30.89981 | 427 ft | 17 kts | 90° |
| 2026-04-22 11:37 | 50.33544 | 30.90134 | 427 ft | 16 kts | 186° |
| 2026-04-22 11:38 | 50.33420 | 30.90127 | 427 ft | 22 kts | 186° |
| 2026-04-22 11:38 | 50.33317 | 30.90262 | 427 ft | 24 kts | 88° |
| 2026-04-22 11:38 | 50.33428 | 30.90451 | 427 ft | 18 kts | 4° |
| 2026-04-22 11:39 | 50.33875 | 30.90477 | 429 ft | 102 kts | 2° |
| 2026-04-22 11:39 | 50.34686 | 30.90562 | 710 ft | 128 kts | 7° |
| 2026-04-22 11:39 | 50.35580 | 30.90859 | 1120 ft | 147 kts | 17° |
| 2026-04-22 11:39 | 50.36602 | 30.91288 | 1599 ft | 157 kts | 7° |
| 2026-04-22 11:40 | 50.37724 | 30.91424 | 2052 ft | 169 kts | 359° |
| 2026-04-22 11:40 | 50.38889 | 30.91140 | 2623 ft | 172 kts | 343° |
| 2026-04-22 11:40 | 50.39913 | 30.90196 | 3230 ft | 175 kts | 320° |
| 2026-04-22 11:40 | 50.40682 | 30.88696 | 3776 ft | 181 kts | 303° |
| 2026-04-22 11:41 | 50.41151 | 30.86863 | 4400 ft | 182 kts | 286° |
| 2026-04-22 11:41 | 50.41302 | 30.84923 | 5026 ft | 183 kts | 272° |
| 2026-04-22 11:41 | 50.41125 | 30.82917 | 5521 ft | 192 kts | 256° |
| 2026-04-22 11:41 | 50.40724 | 30.80926 | 6113 ft | 192 kts | 256° |
| 2026-04-22 11:42 | 50.40342 | 30.78960 | 6731 ft | 191 kts | 255° |
| 2026-04-22 11:42 | 50.39955 | 30.76972 | 7339 ft | 191 kts | 255° |
| 2026-04-22 11:42 | 50.39570 | 30.74997 | 7909 ft | 192 kts | 255° |
| 2026-04-22 11:42 | 50.39189 | 30.73012 | 8478 ft | 193 kts | 255° |
| 2026-04-22 11:43 | 50.38804 | 30.70996 | 9056 ft | 194 kts | 255° |
| 2026-04-22 11:43 | 50.38419 | 30.68983 | 9630 ft | 194 kts | 255° |
| 2026-04-22 11:43 | 50.38039 | 30.66987 | 10198 ft | 195 kts | 255° |
| 2026-04-22 11:43 | 50.37658 | 30.64953 | 10756 ft | 196 kts | 255° |
| 2026-04-22 11:44 | 50.37273 | 30.62887 | 11315 ft | 197 kts | 255° |
| 2026-04-22 11:44 | 50.36894 | 30.60839 | 11866 ft | 198 kts | 255° |
| 2026-04-22 11:44 | 50.36515 | 30.58779 | 12417 ft | 199 kts | 255° |
| 2026-04-22 11:44 | 50.36132 | 30.56704 | 12968 ft | 199 kts | 255° |
| 2026-04-22 11:45 | 50.35747 | 30.54630 | 13511 ft | 198 kts | 255° |
| 2026-04-22 11:45 | 50.35363 | 30.52590 | 14038 ft | 197 kts | 255° |
| 2026-04-22 11:45 | 50.34976 | 30.50548 | 14556 ft | 196 kts | 255° |
| 2026-04-22 11:45 | 50.34581 | 30.48478 | 14866 ft | 208 kts | 255° |
| 2026-04-22 11:46 | 50.34142 | 30.46200 | 14846 ft | 224 kts | 255° |
| 2026-04-22 11:46 | 50.33684 | 30.43853 | 14920 ft | 229 kts | 255° |
| 2026-04-22 11:46 | 50.33218 | 30.41434 | 14903 ft | 237 kts | 255° |
| 2026-04-22 11:46 | 50.32732 | 30.38893 | 14873 ft | 244 kts | 255° |
| 2026-04-22 11:47 | 50.32250 | 30.36359 | 14896 ft | 248 kts | 255° |
| 2026-04-22 11:47 | 50.31750 | 30.33721 | 14883 ft | 253 kts | 255° |
| 2026-04-22 11:47 | 50.31248 | 30.31054 | 14839 ft | 257 kts | 255° |
| 2026-04-22 11:47 | 50.30744 | 30.28377 | 14915 ft | 256 kts | 255° |
| 2026-04-22 11:48 | 50.30243 | 30.25719 | 14899 ft | 260 kts | 255° |
| 2026-04-22 11:48 | 50.29728 | 30.22994 | 14848 ft | 260 kts | 255° |
| 2026-04-22 11:48 | 50.29215 | 30.20297 | 14887 ft | 256 kts | 255° |
| 2026-04-22 11:48 | 50.28714 | 30.17661 | 14921 ft | 252 kts | 255° |
| 2026-04-22 11:49 | 50.28215 | 30.15029 | 14844 ft | 254 kts | 255° |
| 2026-04-22 11:49 | 50.27716 | 30.12397 | 14874 ft | 250 kts | 255° |
| 2026-04-22 11:49 | 50.27224 | 30.09809 | 14917 ft | 247 kts | 255° |
| 2026-04-22 11:49 | 50.26738 | 30.07252 | 14861 ft | 249 kts | 255° |
| 2026-04-22 11:50 | 50.26243 | 30.04651 | 14853 ft | 248 kts | 255° |
| 2026-04-22 11:50 | 50.25753 | 30.02082 | 14912 ft | 245 kts | 255° |
| 2026-04-22 11:50 | 50.25266 | 29.99527 | 14882 ft | 246 kts | 255° |
| 2026-04-22 11:50 | 50.24780 | 29.96977 | 14835 ft | 247 kts | 255° |
| 2026-04-22 11:51 | 50.24294 | 29.94431 | 14905 ft | 243 kts | 255° |
| 2026-04-22 11:51 | 50.23811 | 29.91900 | 14899 ft | 244 kts | 255° |
| 2026-04-22 11:51 | 50.23323 | 29.89342 | 14834 ft | 246 kts | 255° |
| 2026-04-22 11:51 | 50.22836 | 29.86796 | 14897 ft | 243 kts | 255° |
| 2026-04-22 11:52 | 50.22352 | 29.84276 | 14913 ft | 243 kts | 255° |
| 2026-04-22 11:52 | 50.21865 | 29.81739 | 14841 ft | 246 kts | 255° |
| 2026-04-22 11:52 | 50.21373 | 29.79174 | 14886 ft | 243 kts | 255° |
| 2026-04-22 11:52 | 50.20891 | 29.76666 | 14924 ft | 242 kts | 255° |
| 2026-04-22 11:53 | 50.20537 | 29.74105 | 14893 ft | 242 kts | 264° |
| 2026-04-22 11:53 | 50.20309 | 29.71497 | 14850 ft | 244 kts | 263° |
| 2026-04-22 11:53 | 50.20063 | 29.68880 | 14865 ft | 243 kts | 263° |
| 2026-04-22 11:53 | 50.19833 | 29.66301 | 14926 ft | 240 kts | 264° |
| 2026-04-22 11:54 | 50.19616 | 29.63708 | 14865 ft | 243 kts | 264° |
| 2026-04-22 11:54 | 50.19401 | 29.61090 | 14850 ft | 243 kts | 264° |
| 2026-04-22 11:54 | 50.19186 | 29.58483 | 14923 ft | 240 kts | 264° |
| 2026-04-22 11:54 | 50.18871 | 29.55937 | 14882 ft | 243 kts | 251° |
| 2026-04-22 11:55 | 50.17950 | 29.53696 | 14876 ft | 245 kts | 226° |
| 2026-04-22 11:55 | 50.16530 | 29.52261 | 14882 ft | 246 kts | 202° |
| 2026-04-22 11:55 | 50.14939 | 29.51345 | 14884 ft | 246 kts | 205° |
| 2026-04-22 11:55 | 50.13368 | 29.50297 | 14839 ft | 248 kts | 204° |
| 2026-04-22 11:56 | 50.11775 | 29.49298 | 14909 ft | 245 kts | 202° |
| 2026-04-22 11:56 | 50.10160 | 29.48371 | 14896 ft | 247 kts | 201° |
| 2026-04-22 11:56 | 50.08533 | 29.47476 | 14839 ft | 249 kts | 201° |
| 2026-04-22 11:56 | 50.06929 | 29.46594 | 14900 ft | 247 kts | 201° |
| 2026-04-22 11:57 | 50.05316 | 29.45693 | 14918 ft | 246 kts | 201° |
| 2026-04-22 11:57 | 50.03694 | 29.44781 | 14850 ft | 250 kts | 201° |
| 2026-04-22 11:57 | 50.02059 | 29.43860 | 14902 ft | 247 kts | 201° |
| 2026-04-22 11:57 | 50.00451 | 29.42954 | 14945 ft | 246 kts | 201° |
| 2026-04-22 11:58 | 49.98836 | 29.42046 | 14877 ft | 249 kts | 201° |
| 2026-04-22 11:58 | 49.97214 | 29.41139 | 14908 ft | 247 kts | 201° |
| 2026-04-22 11:58 | 49.95596 | 29.40236 | 14974 ft | 245 kts | 201° |
| 2026-04-22 11:58 | 49.93993 | 29.39342 | 14913 ft | 248 kts | 201° |
| 2026-04-22 11:59 | 49.92353 | 29.38430 | 14922 ft | 248 kts | 201° |
| 2026-04-22 11:59 | 49.90756 | 29.37540 | 15002 ft | 245 kts | 201° |
| 2026-04-22 11:59 | 49.89149 | 29.36643 | 14933 ft | 249 kts | 201° |
| 2026-04-22 11:59 | 49.87512 | 29.35708 | 14899 ft | 249 kts | 205° |
| 2026-04-22 12:00 | 49.86002 | 29.34536 | 15085 ft | 241 kts | 207° |
| 2026-04-22 12:00 | 49.84537 | 29.33238 | 14993 ft | 245 kts | 216° |
| 2026-04-22 12:00 | 49.83215 | 29.31582 | 14972 ft | 246 kts | 219° |
| 2026-04-22 12:00 | 49.81874 | 29.29940 | 14970 ft | 245 kts | 219° |
| 2026-04-22 12:01 | 49.80551 | 29.28307 | 15045 ft | 242 kts | 220° |
| 2026-04-22 12:01 | 49.79241 | 29.26638 | 14994 ft | 245 kts | 221° |
| 2026-04-22 12:01 | 49.77943 | 29.24956 | 14961 ft | 247 kts | 221° |
| 2026-04-22 12:01 | 49.76635 | 29.23260 | 15034 ft | 244 kts | 221° |
| 2026-04-22 12:02 | 49.75337 | 29.21580 | 15009 ft | 245 kts | 221° |
| 2026-04-22 12:02 | 49.74011 | 29.19872 | 14958 ft | 247 kts | 221° |
| 2026-04-22 12:02 | 49.72694 | 29.18178 | 15025 ft | 244 kts | 221° |
| 2026-04-22 12:02 | 49.71408 | 29.16522 | 15026 ft | 245 kts | 221° |
| 2026-04-22 12:03 | 49.70092 | 29.14831 | 14960 ft | 248 kts | 221° |
| 2026-04-22 12:03 | 49.68759 | 29.13117 | 15015 ft | 248 kts | 221° |
| 2026-04-22 12:03 | 49.67441 | 29.11418 | 15044 ft | 250 kts | 221° |
| 2026-04-22 12:03 | 49.66088 | 29.09674 | 14987 ft | 256 kts | 221° |
| 2026-04-22 12:04 | 49.64717 | 29.07912 | 14992 ft | 257 kts | 221° |
| 2026-04-22 12:04 | 49.63347 | 29.06152 | 15010 ft | 259 kts | 221° |
| 2026-04-22 12:04 | 49.61951 | 29.04361 | 14996 ft | 261 kts | 221° |
| 2026-04-22 12:04 | 49.60559 | 29.02574 | 15009 ft | 261 kts | 221° |
| 2026-04-22 12:05 | 49.59165 | 29.00786 | 15003 ft | 262 kts | 221° |
| 2026-04-22 12:05 | 49.57759 | 28.98984 | 15002 ft | 263 kts | 221° |
| 2026-04-22 12:05 | 49.56356 | 28.97188 | 14997 ft | 263 kts | 221° |
| 2026-04-22 12:05 | 49.54951 | 28.95391 | 15007 ft | 262 kts | 221° |
| 2026-04-22 12:06 | 49.53554 | 28.93605 | 15000 ft | 262 kts | 221° |
| 2026-04-22 12:06 | 49.52146 | 28.91800 | 15001 ft | 262 kts | 221° |
| 2026-04-22 12:06 | 49.50766 | 28.90025 | 15006 ft | 261 kts | 221° |
| 2026-04-22 12:06 | 49.49374 | 28.88224 | 14993 ft | 261 kts | 221° |
| 2026-04-22 12:07 | 49.47993 | 28.86428 | 15011 ft | 260 kts | 221° |
| 2026-04-22 12:07 | 49.46607 | 28.84613 | 14993 ft | 260 kts | 221° |
| 2026-04-22 12:07 | 49.45249 | 28.82823 | 15002 ft | 259 kts | 221° |
| 2026-04-22 12:07 | 49.43886 | 28.81013 | 15005 ft | 259 kts | 221° |
| 2026-04-22 12:08 | 49.42532 | 28.79203 | 14991 ft | 259 kts | 221° |
| 2026-04-22 12:08 | 49.41179 | 28.77386 | 15013 ft | 258 kts | 221° |
| 2026-04-22 12:08 | 49.39834 | 28.75577 | 15002 ft | 258 kts | 221° |
| 2026-04-22 12:08 | 49.38487 | 28.73766 | 15006 ft | 258 kts | 221° |
| 2026-04-22 12:09 | 49.37139 | 28.71955 | 15018 ft | 257 kts | 221° |
| 2026-04-22 12:09 | 49.35789 | 28.70143 | 15004 ft | 258 kts | 221° |
| 2026-04-22 12:09 | 49.34461 | 28.68361 | 15024 ft | 257 kts | 221° |
| 2026-04-22 12:09 | 49.33112 | 28.66551 | 15014 ft | 257 kts | 221° |
| 2026-04-22 12:10 | 49.31769 | 28.64736 | 15019 ft | 257 kts | 223° |
| 2026-04-22 12:10 | 49.30503 | 28.62828 | 15054 ft | 255 kts | 224° |
| 2026-04-22 12:10 | 49.29230 | 28.60945 | 14972 ft | 259 kts | 224° |
| 2026-04-22 12:10 | 49.27947 | 28.59032 | 15033 ft | 256 kts | 224° |
| 2026-04-22 12:11 | 49.26680 | 28.57118 | 15066 ft | 255 kts | 225° |
| 2026-04-22 12:11 | 49.25424 | 28.55211 | 14990 ft | 258 kts | 225° |
| 2026-04-22 12:11 | 49.24151 | 28.53282 | 15032 ft | 255 kts | 225° |
| 2026-04-22 12:11 | 49.22893 | 28.51376 | 15072 ft | 254 kts | 225° |
| 2026-04-22 12:12 | 49.21628 | 28.49458 | 14993 ft | 258 kts | 225° |
| 2026-04-22 12:12 | 49.20369 | 28.47541 | 15028 ft | 256 kts | 225° |
| 2026-04-22 12:12 | 49.19104 | 28.45633 | 15068 ft | 254 kts | 225° |
| 2026-04-22 12:12 | 49.17831 | 28.43716 | 14992 ft | 257 kts | 225° |
| 2026-04-22 12:13 | 49.16571 | 28.41817 | 15021 ft | 256 kts | 225° |
| 2026-04-22 12:13 | 49.15304 | 28.39904 | 15075 ft | 254 kts | 225° |
| 2026-04-22 12:13 | 49.14033 | 28.37980 | 14999 ft | 257 kts | 225° |
| 2026-04-22 12:13 | 49.12768 | 28.36071 | 15015 ft | 256 kts | 225° |
| 2026-04-22 12:14 | 49.11517 | 28.34182 | 15071 ft | 254 kts | 224° |
| 2026-04-22 12:14 | 49.10255 | 28.32260 | 14984 ft | 258 kts | 224° |
| 2026-04-22 12:14 | 49.08988 | 28.30313 | 15022 ft | 256 kts | 224° |
| 2026-04-22 12:14 | 49.07756 | 28.28407 | 15071 ft | 255 kts | 224° |
| 2026-04-22 12:15 | 49.06501 | 28.26454 | 14998 ft | 258 kts | 224° |
| 2026-04-22 12:15 | 49.05237 | 28.24482 | 15015 ft | 257 kts | 224° |
| 2026-04-22 12:15 | 49.04192 | 28.22330 | 15115 ft | 255 kts | 240° |
| 2026-04-22 12:15 | 49.03345 | 28.19894 | 14956 ft | 263 kts | 239° |
| 2026-04-22 12:16 | 49.02452 | 28.17468 | 14939 ft | 263 kts | 239° |
| 2026-04-22 12:16 | 49.01587 | 28.15037 | 15055 ft | 259 kts | 240° |
| 2026-04-22 12:16 | 49.00754 | 28.12612 | 15046 ft | 261 kts | 241° |
| 2026-04-22 12:16 | 48.99905 | 28.10128 | 14983 ft | 264 kts | 241° |
| 2026-04-22 12:17 | 48.99063 | 28.07682 | 15053 ft | 262 kts | 241° |
| 2026-04-22 12:17 | 48.98214 | 28.05238 | 15054 ft | 263 kts | 241° |
| 2026-04-22 12:17 | 48.97349 | 28.02768 | 14984 ft | 266 kts | 241° |
| 2026-04-22 12:17 | 48.96478 | 28.00294 | 15047 ft | 264 kts | 241° |
| 2026-04-22 12:18 | 48.95609 | 27.97841 | 15062 ft | 264 kts | 241° |
| 2026-04-22 12:18 | 48.94732 | 27.95370 | 14989 ft | 267 kts | 241° |
| 2026-04-22 12:18 | 48.93845 | 27.92881 | 15040 ft | 265 kts | 241° |
| 2026-04-22 12:18 | 48.92970 | 27.90418 | 15066 ft | 265 kts | 241° |
| 2026-04-22 12:19 | 48.92098 | 27.87962 | 14995 ft | 268 kts | 241° |
| 2026-04-22 12:19 | 48.91237 | 27.85459 | 15042 ft | 266 kts | 243° |
| 2026-04-22 12:19 | 48.90416 | 27.82947 | 15071 ft | 265 kts | 243° |
| 2026-04-22 12:19 | 48.89583 | 27.80419 | 14984 ft | 269 kts | 243° |
| 2026-04-22 12:20 | 48.88735 | 27.77886 | 15008 ft | 267 kts | 243° |
| 2026-04-22 12:20 | 48.87895 | 27.75367 | 15070 ft | 265 kts | 243° |
| 2026-04-22 12:20 | 48.87065 | 27.72856 | 15011 ft | 268 kts | 243° |
| 2026-04-22 12:20 | 48.86238 | 27.70352 | 14993 ft | 263 kts | 243° |
| 2026-04-22 12:21 | 48.85437 | 27.67938 | 15048 ft | 250 kts | 243° |
| 2026-04-22 12:21 | 48.84666 | 27.65613 | 15041 ft | 243 kts | 243° |
| 2026-04-22 12:21 | 48.83907 | 27.63320 | 14869 ft | 244 kts | 243° |
| 2026-04-22 12:21 | 48.83137 | 27.60997 | 14666 ft | 245 kts | 243° |
| 2026-04-22 12:22 | 48.82368 | 27.58680 | 14473 ft | 246 kts | 243° |
| 2026-04-22 12:22 | 48.81603 | 27.56381 | 14288 ft | 247 kts | 243° |
| 2026-04-22 12:22 | 48.80820 | 27.54031 | 14103 ft | 247 kts | 243° |
| 2026-04-22 12:22 | 48.80048 | 27.51724 | 13925 ft | 247 kts | 243° |
| 2026-04-22 12:23 | 48.79263 | 27.49380 | 13749 ft | 247 kts | 243° |
| 2026-04-22 12:23 | 48.78487 | 27.47071 | 13579 ft | 247 kts | 243° |
| 2026-04-22 12:23 | 48.77710 | 27.44762 | 13414 ft | 247 kts | 243° |
| 2026-04-22 12:23 | 48.76928 | 27.42440 | 13251 ft | 247 kts | 243° |
| 2026-04-22 12:24 | 48.76142 | 27.40110 | 13088 ft | 246 kts | 243° |
| 2026-04-22 12:24 | 48.75361 | 27.37796 | 12896 ft | 248 kts | 243° |
| 2026-04-22 12:24 | 48.74571 | 27.35459 | 12679 ft | 250 kts | 243° |
| 2026-04-22 12:24 | 48.73779 | 27.33114 | 12436 ft | 252 kts | 243° |
| 2026-04-22 12:25 | 48.72981 | 27.30741 | 12175 ft | 255 kts | 243° |
| 2026-04-22 12:25 | 48.72189 | 27.28391 | 11906 ft | 249 kts | 243° |
| 2026-04-22 12:25 | 48.71406 | 27.26078 | 11629 ft | 244 kts | 243° |
| 2026-04-22 12:25 | 48.70637 | 27.23813 | 11352 ft | 240 kts | 243° |
| 2026-04-22 12:26 | 48.69876 | 27.21579 | 11070 ft | 237 kts | 243° |
| 2026-04-22 12:26 | 48.69135 | 27.19404 | 10791 ft | 234 kts | 243° |
| 2026-04-22 12:26 | 48.68389 | 27.17223 | 10507 ft | 232 kts | 243° |
| 2026-04-22 12:26 | 48.67643 | 27.15045 | 10222 ft | 230 kts | 243° |
| 2026-04-22 12:27 | 48.66910 | 27.12917 | 9941 ft | 228 kts | 243° |
| 2026-04-22 12:27 | 48.66182 | 27.10807 | 9632 ft | 225 kts | 243° |
| 2026-04-22 12:27 | 48.65463 | 27.08717 | 9318 ft | 223 kts | 243° |
| 2026-04-22 12:27 | 48.64757 | 27.06655 | 9008 ft | 222 kts | 243° |
| 2026-04-22 12:28 | 48.64056 | 27.04590 | 8684 ft | 221 kts | 243° |
| 2026-04-22 12:28 | 48.63354 | 27.02514 | 8355 ft | 220 kts | 243° |
| 2026-04-22 12:28 | 48.62663 | 27.00480 | 8034 ft | 220 kts | 243° |
| 2026-04-22 12:28 | 48.61971 | 26.98434 | 7715 ft | 219 kts | 243° |
| 2026-04-22 12:29 | 48.61286 | 26.96400 | 7415 ft | 215 kts | 243° |
| 2026-04-22 12:29 | 48.60614 | 26.94400 | 7107 ft | 213 kts | 243° |
| 2026-04-22 12:29 | 48.59948 | 26.92430 | 6802 ft | 210 kts | 243° |
| 2026-04-22 12:29 | 48.59256 | 26.90485 | 6497 ft | 208 kts | 238° |
| 2026-04-22 12:30 | 48.57642 | 26.86932 | 5925 ft | 204 kts | 237° |
| 2026-04-22 12:30 | 48.56831 | 26.85183 | 5618 ft | 204 kts | 236° |
| 2026-04-22 12:30 | 48.56000 | 26.83449 | 5314 ft | 203 kts | 235° |
| 2026-04-22 12:31 | 48.55172 | 26.81733 | 5015 ft | 202 kts | 235° |
| 2026-04-22 12:31 | 48.54346 | 26.80018 | 4713 ft | 202 kts | 235° |
| 2026-04-22 12:31 | 48.53528 | 26.78316 | 4418 ft | 200 kts | 236° |
| 2026-04-22 12:31 | 48.52712 | 26.76621 | 4126 ft | 199 kts | 235° |
| 2026-04-22 12:32 | 48.51905 | 26.74944 | 3836 ft | 198 kts | 236° |
| 2026-04-22 12:32 | 48.50309 | 26.71638 | 3382 ft | 190 kts | 235° |
| 2026-04-22 12:32 | 48.49542 | 26.70046 | 3183 ft | 185 kts | 236° |
| 2026-04-22 12:33 | 48.48795 | 26.68505 | 2971 ft | 183 kts | 236° |
| 2026-04-22 12:33 | 48.48045 | 26.66976 | 2757 ft | 181 kts | 236° |
| 2026-04-22 12:33 | 48.47300 | 26.65463 | 2543 ft | 179 kts | 236° |
| 2026-04-22 12:33 | 48.46565 | 26.63969 | 2364 ft | 174 kts | 235° |
| 2026-04-22 12:34 | 48.45871 | 26.62463 | 2328 ft | 178 kts | 238° |
| 2026-04-22 12:34 | 48.45216 | 26.60901 | 2315 ft | 175 kts | 242° |
| 2026-04-22 12:34 | 48.44603 | 26.59328 | 2305 ft | 175 kts | 243° |
| 2026-04-22 12:34 | 48.43980 | 26.57722 | 2256 ft | 177 kts | 239° |
| 2026-04-22 12:35 | 48.43218 | 26.56259 | 2278 ft | 175 kts | 230° |
| 2026-04-22 12:35 | 48.42326 | 26.55059 | 2367 ft | 171 kts | 219° |
| 2026-04-22 12:35 | 48.41410 | 26.53937 | 2391 ft | 169 kts | 225° |
| 2026-04-22 12:35 | 48.40553 | 26.52720 | 2386 ft | 170 kts | 227° |
| 2026-04-22 12:36 | 48.39745 | 26.51384 | 2361 ft | 171 kts | 232° |
| 2026-04-22 12:36 | 48.38986 | 26.50017 | 2357 ft | 172 kts | 234° |
| 2026-04-22 12:36 | 48.38251 | 26.48595 | 2394 ft | 170 kts | 236° |
| 2026-04-22 12:36 | 48.37568 | 26.47131 | 2408 ft | 171 kts | 239° |
| 2026-04-22 12:37 | 48.36945 | 26.45620 | 2443 ft | 168 kts | 241° |
| 2026-04-22 12:37 | 48.36343 | 26.44079 | 2358 ft | 176 kts | 244° |
| 2026-04-22 12:37 | 48.35688 | 26.42514 | 2369 ft | 174 kts | 236° |
| 2026-04-22 12:37 | 48.34986 | 26.41064 | 2437 ft | 170 kts | 237° |
| 2026-04-22 12:38 | 48.34319 | 26.39601 | 2445 ft | 171 kts | 239° |
| 2026-04-22 12:38 | 48.33662 | 26.38108 | 2471 ft | 170 kts | 238° |
| 2026-04-22 12:38 | 48.33024 | 26.36614 | 2483 ft | 169 kts | 242° |
| 2026-04-22 12:38 | 48.32491 | 26.35024 | 2435 ft | 169 kts | 248° |
| 2026-04-22 12:39 | 48.32010 | 26.33392 | 2294 ft | 171 kts | 248° |
| 2026-04-22 12:39 | 48.31140 | 26.30082 | 2085 ft | 168 kts | 253° |
| 2026-04-22 12:39 | 48.30864 | 26.28603 | 2359 ft | 126 kts | 258° |
| 2026-04-22 12:40 | 48.30634 | 26.27306 | 2142 ft | 128 kts | 252° |
| 2026-04-22 12:40 | 48.30245 | 26.26088 | 1853 ft | 132 kts | 244° |
| 2026-04-22 12:40 | 48.29835 | 26.24859 | 1604 ft | 128 kts | 249° |
| 2026-04-22 12:40 | 48.29533 | 26.23689 | 1466 ft | 119 kts | 253° |
| 2026-04-22 12:41 | 48.29237 | 26.22474 | 1179 ft | 121 kts | 252° |
| 2026-04-22 12:41 | 48.28925 | 26.21300 | 1082 ft | 125 kts | 250° |
| 2026-04-22 12:41 | 48.28570 | 26.20134 | 1226 ft | 122 kts | 248° |
| 2026-04-22 12:41 | 48.28194 | 26.18977 | 1225 ft | 122 kts | 245° |
| 2026-04-22 12:42 | 48.27831 | 26.17877 | 1297 ft | 116 kts | 248° |
| 2026-04-22 12:42 | 48.27493 | 26.16754 | 1292 ft | 115 kts | 248° |
| 2026-04-22 12:42 | 48.27136 | 26.15656 | 1244 ft | 121 kts | 246° |
| 2026-04-22 12:42 | 48.26793 | 26.14501 | 1231 ft | 122 kts | 251° |
| 2026-04-22 12:43 | 48.26486 | 26.13287 | 1247 ft | 122 kts | 253° |
| 2026-04-22 12:43 | 48.26225 | 26.12090 | 1276 ft | 123 kts | 257° |
| 2026-04-22 12:43 | 48.26000 | 26.10822 | 1255 ft | 128 kts | 258° |
| 2026-04-22 12:43 | 48.25728 | 26.09540 | 1198 ft | 130 kts | 251° |
| 2026-04-22 12:44 | 48.25402 | 26.08265 | 1180 ft | 130 kts | 253° |
| 2026-04-22 12:44 | 48.25187 | 26.06979 | 1186 ft | 127 kts | 262° |
| 2026-04-22 12:44 | 48.25003 | 26.05676 | 1125 ft | 129 kts | 258° |
| 2026-04-22 12:44 | 48.24757 | 26.04375 | 1065 ft | 128 kts | 258° |
| 2026-04-22 12:45 | 48.24552 | 26.03116 | 1096 ft | 121 kts | 260° |
| 2026-04-22 12:45 | 48.24391 | 26.01920 | 1122 ft | 113 kts | 266° |
| 2026-04-22 12:45 | 48.24272 | 26.00796 | 1139 ft | 108 kts | 261° |
| 2026-04-22 12:45 | 48.24277 | 25.99721 | 1019 ft | 96 kts | 287° |
| 2026-04-22 12:46 | 48.24762 | 25.99024 | 1021 ft | 112 kts | 332° |
| 2026-04-22 12:46 | 48.25463 | 25.98387 | 846 ft | 110 kts | 330° |
| 2026-04-22 12:46 | 48.26054 | 25.97949 | 836 ft | 70 kts | 334° |
| 2026-04-22 12:46 | 48.26264 | 25.97769 | 836 ft | 13 kts | 331° |
| 2026-04-22 12:47 | 48.26379 | 25.97659 | 836 ft | 8 kts | 337° |
| 2026-04-22 12:47 | 48.26382 | 25.97657 | 836 ft | 0 kts | 337° |